createdAt,value
2023-05-04T00:00:04.898Z,18.32
2023-05-04T00:01:04.744Z,14.78
2023-05-04T00:02:04.700Z,15.10
2023-05-04T00:03:04.885Z,15.42
2023-05-04T00:04:04.834Z,15.42
2023-05-04T00:05:04.653Z,16.71
2023-05-04T00:06:04.636Z,15.42
2023-05-04T00:07:04.622Z,15.74
2023-05-04T00:08:04.618Z,16.39
2023-05-04T00:09:04.644Z,15.42
2023-05-04T00:10:04.843Z,14.78
2023-05-04T00:11:04.570Z,16.71
2023-05-04T00:12:04.555Z,15.10
2023-05-04T00:13:04.649Z,16.71
2023-05-04T00:14:04.578Z,15.42
2023-05-04T00:15:04.537Z,14.78
2023-05-04T00:16:04.599Z,15.74
2023-05-04T00:17:04.520Z,15.10
2023-05-04T00:18:04.617Z,18.00
2023-05-04T00:19:04.469Z,17.35
2023-05-04T00:20:04.706Z,16.06
2023-05-04T00:21:04.542Z,15.42
2023-05-04T00:22:04.429Z,14.78
2023-05-04T00:23:04.418Z,14.78
2023-05-04T00:24:04.400Z,15.10
2023-05-04T00:25:04.381Z,15.74
2023-05-04T00:26:04.371Z,15.74
2023-05-04T00:27:04.613Z,14.45
2023-05-04T00:28:04.345Z,15.10
2023-05-04T00:29:04.335Z,16.71
2023-05-04T00:30:04.506Z,15.74
2023-05-04T00:31:04.307Z,15.74
2023-05-04T00:32:04.614Z,15.42
2023-05-04T00:33:04.345Z,14.78
2023-05-04T00:34:04.255Z,15.74
2023-05-04T00:35:04.250Z,14.78
2023-05-04T00:36:04.240Z,13.81
2023-05-04T00:37:04.221Z,14.13
2023-05-04T00:38:04.208Z,14.78
2023-05-04T00:39:04.200Z,17.03
2023-05-04T00:40:04.390Z,14.45
2023-05-04T00:41:04.182Z,15.74
2023-05-04T00:42:04.210Z,17.68
2023-05-04T00:43:04.144Z,15.10
2023-05-04T00:44:04.130Z,18.64
2023-05-04T00:45:04.108Z,17.03
2023-05-04T00:46:04.098Z,15.74
2023-05-04T00:47:04.244Z,16.39
2023-05-04T00:48:04.126Z,14.45
2023-05-04T00:49:04.088Z,18.64
2023-05-04T00:50:04.397Z,16.06
2023-05-04T00:51:04.039Z,15.42
2023-05-04T00:52:04.020Z,15.10
2023-05-04T00:53:04.022Z,15.42
2023-05-04T00:54:03.997Z,15.74
2023-05-04T00:55:03.983Z,14.78
2023-05-04T00:56:03.981Z,16.06
2023-05-04T00:57:03.964Z,14.45
2023-05-04T00:58:03.937Z,18.32
2023-05-04T00:59:03.923Z,14.78
2023-05-04T01:00:06.320Z,16.71
2023-05-04T01:01:04.752Z,14.78
2023-05-04T01:02:03.881Z,14.13
2023-05-04T01:03:03.970Z,15.74
2023-05-04T01:04:03.941Z,15.74
2023-05-04T01:05:03.875Z,16.71
2023-05-04T01:06:03.828Z,14.78
2023-05-04T01:07:03.818Z,16.39
2023-05-04T01:08:03.823Z,15.74
2023-05-04T01:09:03.791Z,14.78
2023-05-04T01:10:04.065Z,16.06
2023-05-04T01:11:03.757Z,14.13
2023-05-04T01:12:04.043Z,18.00
2023-05-04T01:13:03.807Z,15.10
2023-05-04T01:14:03.717Z,14.78
2023-05-04T01:15:03.716Z,15.74
2023-05-04T01:16:03.695Z,15.10
2023-05-04T01:17:03.807Z,16.06
2023-05-04T01:18:03.685Z,14.78
2023-05-04T01:19:03.649Z,14.78
2023-05-04T01:20:04.296Z,16.06
2023-05-04T01:21:03.652Z,15.74
2023-05-04T01:22:03.610Z,18.00
2023-05-04T01:23:03.593Z,14.78
2023-05-04T01:24:03.587Z,15.42
2023-05-04T01:25:03.574Z,15.10
2023-05-04T01:26:03.550Z,14.78
2023-05-04T01:27:03.536Z,16.71
2023-05-04T01:28:03.525Z,14.13
2023-05-04T01:29:03.512Z,15.42
2023-05-04T01:30:03.811Z,15.10
2023-05-04T01:31:03.498Z,14.78
2023-05-04T01:32:03.476Z,15.10
2023-05-04T01:33:03.490Z,18.96
2023-05-04T01:34:03.458Z,14.78
2023-05-04T01:35:03.437Z,15.10
2023-05-04T01:36:03.430Z,16.06
2023-05-04T01:37:03.431Z,15.10
2023-05-04T01:38:03.395Z,16.39
2023-05-04T01:39:03.405Z,17.35
2023-05-04T01:40:03.643Z,16.71
2023-05-04T01:41:03.341Z,16.71
2023-05-04T01:42:03.336Z,14.13
2023-05-04T01:43:03.330Z,16.39
2023-05-04T01:44:03.314Z,16.71
2023-05-04T01:45:03.320Z,16.06
2023-05-04T01:46:03.311Z,15.74
2023-05-04T01:47:03.280Z,14.13
2023-05-04T01:48:03.291Z,16.06
2023-05-04T01:49:03.237Z,15.74
2023-05-04T01:50:03.498Z,15.10
2023-05-04T01:51:03.224Z,16.06
2023-05-04T01:52:03.196Z,14.45
2023-05-04T01:53:03.199Z,15.74
2023-05-04T01:54:03.173Z,15.10
2023-05-04T01:55:03.152Z,14.78
2023-05-04T01:56:03.145Z,14.78
2023-05-04T01:57:03.127Z,15.42
2023-05-04T01:58:03.116Z,15.74
2023-05-04T01:59:03.098Z,16.39
2023-05-04T02:00:03.294Z,16.71
2023-05-04T02:01:03.076Z,14.45
2023-05-04T02:02:03.155Z,14.13
2023-05-04T02:03:03.155Z,16.06
2023-05-04T02:04:03.173Z,13.81
2023-05-04T02:05:03.016Z,15.10
2023-05-04T02:06:03.018Z,15.10
2023-05-04T02:07:02.989Z,13.49
2023-05-04T02:08:02.973Z,15.10
2023-05-04T02:09:02.988Z,15.42
2023-05-04T02:10:03.126Z,17.35
2023-05-04T02:11:02.938Z,13.81
2023-05-04T02:12:02.922Z,15.74
2023-05-04T02:13:02.933Z,14.45
2023-05-04T02:14:02.983Z,15.10
2023-05-04T02:15:03.085Z,14.78
2023-05-04T02:16:02.928Z,16.71
2023-05-04T02:17:02.851Z,16.06
2023-05-04T02:18:02.857Z,14.78
2023-05-04T02:19:02.830Z,14.13
2023-05-04T02:20:03.038Z,12.52
2023-05-04T02:21:02.806Z,15.42
2023-05-04T02:22:02.789Z,14.78
2023-05-04T02:23:02.777Z,15.42
2023-05-04T02:24:02.759Z,13.81
2023-05-04T02:25:02.767Z,13.16
2023-05-04T02:26:02.747Z,15.10
2023-05-04T02:27:02.725Z,14.78
2023-05-04T02:28:02.712Z,17.35
2023-05-04T02:29:02.710Z,16.71
2023-05-04T02:30:03.020Z,14.45
2023-05-04T02:31:02.661Z,15.42
2023-05-04T02:32:02.693Z,14.78
2023-05-04T02:33:02.711Z,15.42
2023-05-04T02:34:02.628Z,15.10
2023-05-04T02:35:02.603Z,16.71
2023-05-04T02:36:02.602Z,15.74
2023-05-04T02:37:03.271Z,13.81
2023-05-04T02:38:02.571Z,14.45
2023-05-04T02:39:02.658Z,16.06
2023-05-04T02:40:02.773Z,17.35
2023-05-04T02:41:02.733Z,15.42
2023-05-04T02:42:02.516Z,14.13
2023-05-04T02:43:02.510Z,14.13
2023-05-04T02:44:02.507Z,14.13
2023-05-04T02:45:02.827Z,13.16
2023-05-04T02:46:02.554Z,12.84
2023-05-04T02:47:02.452Z,16.71
2023-05-04T02:48:02.775Z,15.10
2023-05-04T02:49:02.423Z,15.42
2023-05-04T02:50:02.651Z,13.16
2023-05-04T02:51:02.394Z,15.10
2023-05-04T02:52:02.401Z,13.81
2023-05-04T02:53:02.377Z,14.13
2023-05-04T02:54:02.357Z,13.81
2023-05-04T02:55:02.358Z,13.16
2023-05-04T02:56:02.327Z,14.45
2023-05-04T02:57:02.332Z,17.03
2023-05-04T02:58:02.313Z,14.13
2023-05-04T02:59:02.295Z,14.45
2023-05-04T03:00:02.426Z,13.49
2023-05-04T03:01:02.302Z,14.78
2023-05-04T03:02:02.247Z,16.06
2023-05-04T03:03:02.284Z,14.13
2023-05-04T03:04:02.252Z,13.81
2023-05-04T03:05:02.215Z,14.78
2023-05-04T03:06:02.198Z,13.81
2023-05-04T03:07:02.184Z,14.13
2023-05-04T03:08:02.163Z,14.13
2023-05-04T03:09:02.147Z,12.84
2023-05-04T03:10:02.134Z,16.39
2023-05-04T03:11:02.122Z,15.42
2023-05-04T03:12:02.102Z,12.52
2023-05-04T03:13:02.168Z,15.74
2023-05-04T03:14:02.088Z,16.39
2023-05-04T03:15:02.070Z,14.78
2023-05-04T03:16:02.058Z,14.13
2023-05-04T03:17:02.066Z,12.52
2023-05-04T03:18:02.081Z,16.39
2023-05-04T03:19:02.011Z,14.13
2023-05-04T03:20:02.164Z,14.45
2023-05-04T03:21:01.993Z,15.42
2023-05-04T03:22:01.977Z,12.52
2023-05-04T03:23:01.962Z,17.03
2023-05-04T03:24:01.950Z,14.45
2023-05-04T03:25:01.954Z,13.81
2023-05-04T03:26:01.915Z,14.13
2023-05-04T03:27:01.901Z,13.81
2023-05-04T03:28:01.888Z,13.49
2023-05-04T03:29:01.905Z,15.74
2023-05-04T03:30:01.953Z,14.78
2023-05-04T03:31:01.857Z,13.16
2023-05-04T03:32:01.862Z,13.81
2023-05-04T03:33:01.876Z,13.49
2023-05-04T03:34:01.814Z,15.42
2023-05-04T03:35:03.841Z,12.84
2023-05-04T03:36:01.784Z,13.81
2023-05-04T03:37:01.759Z,12.84
2023-05-04T03:38:01.762Z,16.71
2023-05-04T03:39:01.729Z,14.13
2023-05-04T03:40:01.746Z,15.74
2023-05-04T03:41:01.700Z,16.39
2023-05-04T03:42:01.703Z,12.84
2023-05-04T03:43:01.685Z,14.45
2023-05-04T03:44:01.675Z,15.42
2023-05-04T03:45:03.836Z,13.16
2023-05-04T03:46:01.755Z,11.87
2023-05-04T03:47:01.634Z,15.42
2023-05-04T03:48:01.632Z,16.06
2023-05-04T03:49:01.600Z,14.13
2023-05-04T03:50:01.628Z,16.71
2023-05-04T03:51:01.581Z,13.16
2023-05-04T03:52:01.552Z,14.13
2023-05-04T03:53:01.544Z,16.06
2023-05-04T03:54:01.520Z,15.74
2023-05-04T03:55:01.529Z,12.52
2023-05-04T03:56:01.514Z,14.13
2023-05-04T03:57:01.482Z,13.81
2023-05-04T03:58:01.467Z,13.49
2023-05-04T03:59:01.458Z,14.78
2023-05-04T04:00:01.494Z,16.39
2023-05-04T04:01:01.457Z,13.81
2023-05-04T04:02:01.459Z,14.13
2023-05-04T04:03:01.497Z,15.74
2023-05-04T04:04:01.575Z,13.81
2023-05-04T04:05:01.391Z,13.49
2023-05-04T04:06:01.357Z,15.10
2023-05-04T04:07:01.340Z,12.84
2023-05-04T04:08:01.337Z,12.52
2023-05-04T04:09:01.317Z,13.49
2023-05-04T04:10:01.296Z,14.13
2023-05-04T04:11:01.315Z,13.49
2023-05-04T04:12:01.274Z,13.16
2023-05-04T04:13:01.384Z,12.20
2023-05-04T04:14:01.242Z,14.45
2023-05-04T04:15:01.247Z,15.74
2023-05-04T04:16:01.267Z,13.49
2023-05-04T04:17:01.229Z,12.52
2023-05-04T04:18:01.231Z,15.10
2023-05-04T04:19:01.182Z,12.52
2023-05-04T04:20:01.158Z,15.42
2023-05-04T04:21:01.153Z,17.35
2023-05-04T04:22:01.135Z,12.20
2023-05-04T04:23:01.129Z,12.20
2023-05-04T04:24:01.118Z,12.84
2023-05-04T04:25:01.403Z,14.78
2023-05-04T04:26:01.095Z,12.52
2023-05-04T04:27:01.070Z,13.16
2023-05-04T04:28:01.060Z,12.52
2023-05-04T04:29:01.044Z,13.16
2023-05-04T04:30:01.034Z,13.49
2023-05-04T04:31:01.045Z,14.78
2023-05-04T04:32:01.007Z,12.52
2023-05-04T04:33:01.038Z,12.20
2023-05-04T04:34:01.003Z,12.20
2023-05-04T04:35:00.959Z,15.10
2023-05-04T04:36:00.946Z,16.06
2023-05-04T04:37:00.929Z,12.52
2023-05-04T04:38:03.441Z,12.84
2023-05-04T04:39:00.915Z,12.20
2023-05-04T04:40:00.923Z,15.42
2023-05-04T04:41:00.896Z,13.16
2023-05-04T04:42:00.866Z,14.45
2023-05-04T04:43:00.867Z,12.84
2023-05-04T04:44:00.838Z,14.45
2023-05-04T04:45:00.833Z,13.16
2023-05-04T04:46:00.820Z,13.16
2023-05-04T04:47:00.840Z,12.20
2023-05-04T04:48:00.838Z,13.16
2023-05-04T04:49:00.787Z,13.81
2023-05-04T04:50:00.765Z,12.84
2023-05-04T04:51:00.734Z,13.16
2023-05-04T04:52:00.721Z,11.87
2023-05-04T04:53:00.709Z,14.13
2023-05-04T04:54:00.698Z,12.20
2023-05-04T04:55:00.682Z,14.78
2023-05-04T04:56:00.669Z,13.81
2023-05-04T04:57:00.658Z,14.13
2023-05-04T04:58:00.658Z,13.81
2023-05-04T04:59:00.630Z,12.84
2023-05-04T05:00:00.616Z,13.81
2023-05-04T05:01:00.703Z,13.49
2023-05-04T05:02:00.665Z,14.78
2023-05-04T05:03:00.613Z,14.78
2023-05-04T05:04:00.557Z,13.81
2023-05-04T05:05:00.628Z,15.10
2023-05-04T05:06:00.531Z,14.78
2023-05-04T05:07:00.527Z,12.84
2023-05-04T05:08:00.519Z,14.78
2023-05-04T05:09:00.502Z,15.42
2023-05-04T05:10:00.485Z,13.16
2023-05-04T05:11:00.484Z,13.81
2023-05-04T05:12:00.457Z,11.55
2023-05-04T05:13:00.509Z,12.52
2023-05-04T05:14:00.427Z,13.81
2023-05-04T05:15:00.415Z,13.81
2023-05-04T05:16:00.411Z,14.13
2023-05-04T05:17:00.552Z,13.49
2023-05-04T05:18:00.434Z,13.16
2023-05-04T05:19:00.353Z,12.52
2023-05-04T05:20:00.338Z,13.16
2023-05-04T05:21:00.358Z,12.52
2023-05-04T05:22:00.323Z,13.81
2023-05-04T05:23:00.329Z,13.16
2023-05-04T05:24:00.286Z,13.16
2023-05-04T05:25:00.289Z,13.49
2023-05-04T05:26:02.636Z,13.16
2023-05-04T05:27:00.263Z,13.49
2023-05-04T05:28:00.238Z,12.84
2023-05-04T05:29:00.226Z,12.84
2023-05-04T05:30:00.369Z,12.84
2023-05-04T05:31:00.233Z,14.45
2023-05-04T05:32:00.178Z,12.84
2023-05-04T05:33:00.247Z,14.78
2023-05-04T05:34:00.148Z,12.84
2023-05-04T05:35:00.442Z,12.84
2023-05-04T05:36:00.138Z,12.84
2023-05-04T05:37:00.208Z,12.52
2023-05-04T05:38:00.150Z,14.78
2023-05-04T05:39:00.115Z,15.10
2023-05-04T05:40:00.096Z,12.52
2023-05-04T05:41:00.055Z,12.20
2023-05-04T05:42:00.041Z,14.13
2023-05-04T05:43:00.033Z,12.84
2023-05-04T05:44:00.022Z,17.03
2023-05-04T05:45:00.056Z,11.87
2023-05-04T05:46:00.047Z,12.84
2023-05-04T05:46:59.983Z,13.49
2023-05-04T05:47:59.995Z,14.13
2023-05-04T05:48:59.959Z,14.45
2023-05-04T05:49:59.992Z,13.16
2023-05-04T05:50:59.925Z,12.20
2023-05-04T05:51:59.909Z,13.49
2023-05-04T05:52:59.921Z,13.16
2023-05-04T05:53:59.887Z,13.81
2023-05-04T05:55:02.446Z,11.55
2023-05-04T05:55:59.852Z,11.87
2023-05-04T05:56:59.840Z,12.52
2023-05-04T05:57:59.977Z,12.52
2023-05-04T05:58:59.809Z,12.84
2023-05-04T05:59:59.812Z,13.81
2023-05-04T06:00:59.790Z,12.84
2023-05-04T06:01:59.782Z,11.87
2023-05-04T06:03:00.072Z,13.16
2023-05-04T06:03:59.925Z,15.10
2023-05-04T06:04:59.879Z,15.10
2023-05-04T06:05:59.916Z,12.52
2023-05-04T06:06:59.707Z,12.84
2023-05-04T06:07:59.942Z,15.74
2023-05-04T06:08:59.727Z,14.45
2023-05-04T06:09:59.674Z,15.74
2023-05-04T06:10:59.909Z,14.45
2023-05-04T06:11:59.631Z,12.84
2023-05-04T06:12:59.676Z,12.84
2023-05-04T06:13:59.611Z,12.84
2023-05-04T06:14:59.597Z,13.49
2023-05-04T06:15:59.625Z,13.16
2023-05-04T06:16:59.572Z,12.52
2023-05-04T06:17:59.589Z,12.84
2023-05-04T06:18:59.559Z,12.52
2023-05-04T06:19:59.522Z,13.16
2023-05-04T06:20:59.674Z,14.13
2023-05-04T06:21:59.497Z,12.84
2023-05-04T06:22:59.490Z,15.42
2023-05-04T06:23:59.489Z,12.52
2023-05-04T06:25:03.729Z,12.20
2023-05-04T06:26:00.468Z,14.13
2023-05-04T06:26:59.462Z,12.52
2023-05-04T06:27:59.427Z,14.13
2023-05-04T06:28:59.415Z,12.20
2023-05-04T06:29:59.393Z,13.16
2023-05-04T06:30:59.380Z,12.20
2023-05-04T06:31:59.422Z,14.13
2023-05-04T06:32:59.393Z,14.13
2023-05-04T06:33:59.338Z,14.45
2023-05-04T06:34:59.318Z,12.52
2023-05-04T06:35:59.322Z,14.13
2023-05-04T06:36:59.292Z,12.84
2023-05-04T06:37:59.318Z,15.74
2023-05-04T06:38:59.260Z,13.49
2023-05-04T06:39:59.268Z,13.16
2023-05-04T06:40:59.341Z,15.10
2023-05-04T06:41:59.226Z,16.71
2023-05-04T06:42:59.214Z,13.81
2023-05-04T06:43:59.215Z,12.20
2023-05-04T06:44:59.185Z,13.81
2023-05-04T06:45:59.213Z,12.84
2023-05-04T06:46:59.158Z,11.87
2023-05-04T06:47:59.177Z,13.16
2023-05-04T06:48:59.153Z,12.52
2023-05-04T06:49:59.126Z,15.74
2023-05-04T06:51:01.463Z,13.16
2023-05-04T06:51:59.091Z,13.81
2023-05-04T06:52:59.083Z,15.42
2023-05-04T06:53:59.066Z,16.06
2023-05-04T06:54:59.056Z,13.16
2023-05-04T06:55:59.041Z,12.52
2023-05-04T06:56:59.058Z,14.13
2023-05-04T06:57:59.008Z,15.74
2023-05-04T06:58:59.001Z,13.49
2023-05-04T06:59:58.980Z,13.16
2023-05-04T07:00:58.987Z,14.45
2023-05-04T07:01:58.976Z,12.52
2023-05-04T07:02:58.989Z,13.81
2023-05-04T07:03:58.962Z,14.45
2023-05-04T07:04:58.925Z,13.49
2023-05-04T07:05:58.904Z,12.52
2023-05-04T07:06:58.894Z,13.49
2023-05-04T07:07:58.894Z,12.52
2023-05-04T07:08:58.879Z,15.10
2023-05-04T07:09:58.855Z,14.13
2023-05-04T07:10:58.842Z,15.10
2023-05-04T07:11:58.825Z,12.84
2023-05-04T07:12:58.869Z,12.84
2023-05-04T07:13:58.795Z,14.78
2023-05-04T07:14:58.778Z,13.16
2023-05-04T07:15:58.825Z,12.52
2023-05-04T07:16:58.762Z,15.42
2023-05-04T07:17:58.833Z,13.81
2023-05-04T07:18:58.742Z,13.16
2023-05-04T07:19:58.719Z,14.45
2023-05-04T07:21:10.823Z,13.16
2023-05-04T07:21:59.717Z,14.78
2023-05-04T07:22:58.685Z,12.52
2023-05-04T07:23:58.671Z,13.16
2023-05-04T07:24:58.649Z,14.13
2023-05-04T07:25:58.631Z,15.74
2023-05-04T07:26:58.619Z,14.13
2023-05-04T07:27:58.614Z,15.10
2023-05-04T07:28:58.678Z,14.13
2023-05-04T07:29:58.597Z,14.78
2023-05-04T07:30:58.573Z,12.84
2023-05-04T07:31:58.615Z,13.81
2023-05-04T07:32:58.596Z,14.78
2023-05-04T07:33:58.542Z,14.78
2023-05-04T07:34:58.528Z,15.10
2023-05-04T07:35:58.501Z,13.16
2023-05-04T07:36:58.493Z,13.49
2023-05-04T07:37:58.478Z,13.16
2023-05-04T07:38:58.463Z,14.45
2023-05-04T07:39:58.446Z,13.49
2023-05-04T07:40:58.437Z,12.52
2023-05-04T07:41:58.430Z,13.16
2023-05-04T07:42:58.432Z,13.81
2023-05-04T07:43:58.396Z,15.10
2023-05-04T07:44:58.433Z,14.13
2023-05-04T07:45:58.387Z,14.78
2023-05-04T07:46:58.380Z,14.45
2023-05-04T07:47:58.377Z,14.13
2023-05-04T07:48:58.331Z,13.49
2023-05-04T07:49:58.321Z,15.10
2023-05-04T07:50:58.319Z,15.42
2023-05-04T07:51:58.300Z,15.10
2023-05-04T07:52:58.278Z,14.45
2023-05-04T07:53:58.275Z,15.74
2023-05-04T07:54:58.259Z,13.81
2023-05-04T07:55:58.553Z,15.74
2023-05-04T07:56:58.224Z,13.81
2023-05-04T07:57:58.216Z,13.49
2023-05-04T07:58:58.203Z,13.81
2023-05-04T07:59:58.192Z,15.42
2023-05-04T08:00:58.316Z,16.06
2023-05-04T08:01:58.183Z,15.10
2023-05-04T08:02:58.224Z,14.45
2023-05-04T08:03:58.164Z,14.45
2023-05-04T08:04:58.125Z,14.78
2023-05-04T08:05:58.112Z,14.13
2023-05-04T08:06:58.100Z,14.78
2023-05-04T08:07:58.345Z,14.13
2023-05-04T08:08:58.069Z,14.45
2023-05-04T08:09:58.060Z,15.10
2023-05-04T08:11:11.699Z,15.42
2023-05-04T08:11:59.058Z,14.78
2023-05-04T08:12:58.051Z,14.78
2023-05-04T08:13:58.019Z,14.45
2023-05-04T08:14:57.991Z,16.39
2023-05-04T08:15:57.988Z,12.52
2023-05-04T08:16:57.999Z,14.13
2023-05-04T08:17:57.975Z,16.06
2023-05-04T08:18:57.956Z,13.49
2023-05-04T08:19:58.087Z,15.42
2023-05-04T08:20:57.914Z,14.45
2023-05-04T08:21:57.907Z,12.84
2023-05-04T08:22:57.889Z,15.42
2023-05-04T08:23:57.883Z,15.42
2023-05-04T08:24:57.869Z,15.10
2023-05-04T08:25:58.067Z,15.42
2023-05-04T08:27:07.331Z,15.10
2023-05-04T08:27:58.860Z,14.78
2023-05-04T08:28:57.824Z,14.13
2023-05-04T08:29:57.828Z,14.45
2023-05-04T08:30:57.799Z,15.74
2023-05-04T08:31:57.878Z,15.42
2023-05-04T08:32:57.955Z,15.42
2023-05-04T08:33:57.751Z,15.10
2023-05-04T08:34:57.852Z,14.78
2023-05-04T08:35:57.730Z,13.81
2023-05-04T08:36:57.739Z,14.13
2023-05-04T08:37:57.743Z,14.78
2023-05-04T08:38:57.694Z,13.81
2023-05-04T08:39:57.690Z,16.06
2023-05-04T08:40:57.679Z,15.74
2023-05-04T08:41:57.660Z,14.13
2023-05-04T08:42:57.647Z,15.74
2023-05-04T08:43:57.636Z,14.78
2023-05-04T08:44:57.636Z,14.78
2023-05-04T08:45:57.683Z,14.78
2023-05-04T08:46:57.598Z,15.74
2023-05-04T08:47:57.616Z,14.78
2023-05-04T08:48:57.681Z,14.78
2023-05-04T08:49:57.568Z,14.13
2023-05-04T08:50:57.545Z,15.42
2023-05-04T08:51:57.529Z,15.10
2023-05-04T08:52:57.521Z,16.39
2023-05-04T08:53:57.516Z,14.78
2023-05-04T08:54:57.511Z,16.71
2023-05-04T08:55:57.490Z,16.06
2023-05-04T08:56:57.467Z,16.06
2023-05-04T08:57:57.453Z,15.42
2023-05-04T08:58:57.437Z,14.45
2023-05-04T08:59:57.424Z,14.78
2023-05-04T09:00:57.510Z,14.13
2023-05-04T09:01:57.467Z,15.42
2023-05-04T09:02:57.448Z,16.39
2023-05-04T09:03:57.532Z,15.10
2023-05-04T09:04:57.399Z,15.74
2023-05-04T09:05:57.359Z,15.10
2023-05-04T09:06:57.340Z,16.06
2023-05-04T09:07:57.324Z,15.74
2023-05-04T09:08:57.316Z,16.39
2023-05-04T09:09:57.307Z,15.42
2023-05-04T09:10:57.292Z,16.71
2023-05-04T09:11:57.295Z,15.74
2023-05-04T09:12:57.343Z,15.10
2023-05-04T09:13:57.255Z,17.68
2023-05-04T09:14:57.235Z,14.78
2023-05-04T09:15:57.227Z,17.03
2023-05-04T09:16:57.220Z,15.74
2023-05-04T09:17:58.042Z,14.78
2023-05-04T09:18:57.183Z,14.78
2023-05-04T09:19:57.176Z,15.42
2023-05-04T09:20:57.187Z,16.39
2023-05-04T09:21:57.157Z,15.42
2023-05-04T09:22:57.444Z,14.78
2023-05-04T09:23:57.170Z,14.78
2023-05-04T09:24:57.123Z,15.10
2023-05-04T09:25:57.104Z,17.03
2023-05-04T09:26:57.090Z,17.03
2023-05-04T09:27:57.227Z,14.78
2023-05-04T09:28:57.431Z,15.42
2023-05-04T09:29:57.058Z,15.74
2023-05-04T09:30:57.065Z,15.10
2023-05-04T09:31:57.033Z,14.13
2023-05-04T09:32:57.064Z,15.42
2023-05-04T09:33:57.001Z,15.42
2023-05-04T09:34:57.004Z,14.78
2023-05-04T09:35:56.978Z,16.39
2023-05-04T09:36:57.011Z,16.39
2023-05-04T09:37:56.949Z,16.71
2023-05-04T09:38:56.938Z,16.71
2023-05-04T09:39:56.952Z,15.74
2023-05-04T09:40:56.913Z,15.42
2023-05-04T09:41:56.957Z,15.42
2023-05-04T09:42:56.911Z,15.74
2023-05-04T09:43:56.881Z,17.03
2023-05-04T09:44:56.866Z,17.03
2023-05-04T09:45:56.859Z,17.03
2023-05-04T09:46:56.836Z,15.10
2023-05-04T09:47:56.844Z,15.42
2023-05-04T09:48:56.920Z,15.10
2023-05-04T09:49:56.822Z,16.06
2023-05-04T09:50:56.798Z,17.35
2023-05-04T09:51:56.780Z,16.39
2023-05-04T09:52:56.813Z,15.74
2023-05-04T09:53:56.756Z,17.35
2023-05-04T09:54:56.736Z,14.45
2023-05-04T09:55:56.730Z,14.78
2023-05-04T09:56:56.716Z,16.71
2023-05-04T09:57:56.729Z,16.39
2023-05-04T09:58:56.695Z,16.71
2023-05-04T09:59:56.680Z,16.06
2023-05-04T10:00:56.679Z,16.39
2023-05-04T10:01:58.610Z,15.74
2023-05-04T10:02:56.656Z,16.06
2023-05-04T10:03:56.633Z,15.74
2023-05-04T10:04:56.726Z,15.74
2023-05-04T10:05:56.628Z,16.39
2023-05-04T10:06:56.593Z,18.00
2023-05-04T10:07:56.585Z,16.71
2023-05-04T10:08:56.592Z,16.39
2023-05-04T10:09:56.562Z,17.03
2023-05-04T10:10:56.542Z,17.68
2023-05-04T10:11:56.534Z,18.00
2023-05-04T10:12:56.558Z,15.74
2023-05-04T10:13:56.512Z,17.35
2023-05-04T10:14:56.498Z,15.74
2023-05-04T10:15:56.484Z,16.06
2023-05-04T10:16:56.474Z,17.68
2023-05-04T10:17:56.497Z,15.74
2023-05-04T10:18:56.447Z,15.74
2023-05-04T10:19:56.445Z,17.68
2023-05-04T10:20:56.426Z,16.39
2023-05-04T10:21:56.425Z,16.06
2023-05-04T10:22:56.400Z,17.03
2023-05-04T10:23:56.393Z,17.35
2023-05-04T10:24:56.404Z,17.03
2023-05-04T10:25:56.365Z,17.03
2023-05-04T10:26:56.359Z,16.71
2023-05-04T10:27:56.363Z,16.39
2023-05-04T10:28:56.327Z,17.03
2023-05-04T10:29:56.315Z,18.00
2023-05-04T10:30:56.300Z,16.39
2023-05-04T10:31:56.383Z,16.71
2023-05-04T10:32:56.560Z,17.35
2023-05-04T10:33:56.281Z,15.74
2023-05-04T10:34:57.324Z,16.39
2023-05-04T10:35:56.246Z,17.68
2023-05-04T10:36:56.233Z,18.00
2023-05-04T10:37:56.226Z,15.74
2023-05-04T10:38:56.209Z,16.39
2023-05-04T10:39:56.220Z,18.00
2023-05-04T10:40:56.234Z,17.35
2023-05-04T10:41:56.180Z,18.00
2023-05-04T10:42:56.160Z,18.96
2023-05-04T10:43:56.151Z,17.35
2023-05-04T10:44:56.141Z,17.35
2023-05-04T10:45:56.198Z,16.39
2023-05-04T10:46:57.767Z,17.03
2023-05-04T10:47:56.420Z,16.06
2023-05-04T10:48:56.090Z,16.71
2023-05-04T10:49:56.087Z,17.68
2023-05-04T10:50:56.069Z,18.00
2023-05-04T10:51:56.052Z,18.64
2023-05-04T10:52:57.583Z,17.03
2023-05-04T10:53:56.031Z,18.32
2023-05-04T10:54:56.021Z,17.35
2023-05-04T10:55:56.008Z,16.71
2023-05-04T10:56:56.078Z,17.68
2023-05-04T10:57:56.007Z,18.64
2023-05-04T10:58:55.983Z,17.35
2023-05-04T10:59:55.953Z,17.68
2023-05-04T11:00:56.009Z,18.00
2023-05-04T11:01:55.933Z,17.68
2023-05-04T11:02:56.033Z,17.03
2023-05-04T11:03:55.983Z,18.32
2023-05-04T11:04:55.894Z,18.32
2023-05-04T11:05:55.884Z,18.32
2023-05-04T11:06:55.885Z,18.32
2023-05-04T11:07:55.861Z,17.35
2023-05-04T11:08:55.855Z,19.29
2023-05-04T11:09:55.842Z,19.29
2023-05-04T11:10:55.833Z,17.68
2023-05-04T11:11:55.820Z,18.64
2023-05-04T11:12:55.929Z,18.96
2023-05-04T11:13:55.797Z,19.61
2023-05-04T11:14:55.785Z,18.00
2023-05-04T11:15:55.780Z,18.64
2023-05-04T11:16:55.850Z,18.32
2023-05-04T11:17:55.762Z,18.32
2023-05-04T11:18:55.733Z,18.00
2023-05-04T11:19:55.722Z,18.96
2023-05-04T11:20:55.710Z,19.29
2023-05-04T11:21:55.699Z,18.96
2023-05-04T11:22:55.699Z,18.00
2023-05-04T11:23:55.686Z,18.96
2023-05-04T11:24:56.315Z,18.32
2023-05-04T11:25:55.653Z,19.93
2023-05-04T11:26:55.645Z,18.64
2023-05-04T11:27:55.705Z,17.68
2023-05-04T11:28:55.663Z,18.64
2023-05-04T11:29:55.611Z,18.64
2023-05-04T11:30:56.250Z,18.64
2023-05-04T11:31:55.688Z,18.00
2023-05-04T11:32:55.615Z,18.32
2023-05-04T11:33:55.565Z,17.68
2023-05-04T11:34:55.559Z,18.64
2023-05-04T11:35:55.536Z,18.64
2023-05-04T11:36:55.527Z,19.29
2023-05-04T11:37:55.540Z,18.64
2023-05-04T11:38:55.501Z,18.96
2023-05-04T11:39:55.594Z,18.00
2023-05-04T11:40:55.493Z,18.96
2023-05-04T11:41:55.469Z,18.64
2023-05-04T11:42:56.897Z,18.64
2023-05-04T11:43:55.453Z,18.64
2023-05-04T11:44:55.929Z,18.64
2023-05-04T11:45:55.792Z,18.96
2023-05-04T11:46:55.414Z,19.29
2023-05-04T11:47:55.437Z,18.32
2023-05-04T11:48:55.393Z,19.29
2023-05-04T11:49:55.390Z,17.68
2023-05-04T11:50:55.374Z,17.68
2023-05-04T11:51:55.365Z,18.00
2023-05-04T11:52:55.351Z,19.29
2023-05-04T11:53:55.343Z,18.00
2023-05-04T11:54:55.869Z,18.96
2023-05-04T11:55:55.313Z,18.00
2023-05-04T11:56:55.299Z,18.32
2023-05-04T11:57:55.394Z,18.64
2023-05-04T11:58:55.274Z,18.96
2023-05-04T11:59:55.268Z,18.64
2023-05-04T12:00:56.005Z,19.61
2023-05-04T12:01:55.243Z,18.32
2023-05-04T12:02:55.316Z,18.96
2023-05-04T12:03:55.384Z,18.00
2023-05-04T12:04:55.207Z,18.64
2023-05-04T12:05:55.275Z,18.00
2023-05-04T12:06:55.433Z,18.00
2023-05-04T12:07:55.174Z,18.00
2023-05-04T12:08:55.164Z,17.68
2023-05-04T12:09:55.160Z,19.61
2023-05-04T12:10:55.145Z,20.58
2023-05-04T12:11:55.124Z,18.64
2023-05-04T12:12:55.145Z,18.96
2023-05-04T12:13:55.100Z,18.64
2023-05-04T12:14:55.088Z,19.61
2023-05-04T12:15:55.449Z,18.96
2023-05-04T12:16:55.094Z,19.29
2023-05-04T12:17:55.089Z,18.64
2023-05-04T12:18:55.040Z,17.68
2023-05-04T12:19:55.064Z,18.64
2023-05-04T12:20:55.017Z,18.64
2023-05-04T12:21:55.004Z,18.64
2023-05-04T12:22:55.003Z,18.32
2023-05-04T12:23:54.993Z,19.61
2023-05-04T12:24:54.968Z,18.32
2023-05-04T12:25:58.363Z,18.32
2023-05-04T12:26:54.967Z,19.61
2023-05-04T12:27:54.936Z,19.61
2023-05-04T12:28:54.922Z,18.64
2023-05-04T12:29:54.935Z,17.68
2023-05-04T12:30:54.897Z,20.25
2023-05-04T12:31:54.974Z,19.61
2023-05-04T12:32:54.945Z,19.61
2023-05-04T12:33:54.852Z,18.64
2023-05-04T12:34:54.848Z,19.29
2023-05-04T12:35:54.831Z,18.96
2023-05-04T12:36:54.824Z,18.32
2023-05-04T12:37:54.826Z,19.29
2023-05-04T12:38:54.796Z,20.25
2023-05-04T12:39:54.787Z,19.29
2023-05-04T12:40:54.772Z,18.00
2023-05-04T12:41:54.770Z,19.93
2023-05-04T12:42:54.776Z,18.32
2023-05-04T12:43:54.735Z,18.00
2023-05-04T12:44:54.720Z,19.29
2023-05-04T12:45:54.945Z,17.35
2023-05-04T12:46:54.706Z,18.96
2023-05-04T12:47:54.788Z,20.90
2023-05-04T12:48:54.718Z,19.93
2023-05-04T12:49:54.673Z,18.32
2023-05-04T12:50:54.651Z,18.64
2023-05-04T12:51:54.639Z,20.90